Latest Weather Observations for Ballera

IDQ60801

Issued at 10:22 am EST Saturday 13 April 2024 (issued every 10 minutes, with the page automatically refreshed every 10 minutes)

About weather observations | Map of weather stations | Latest weather observations for QLD | Other Formats
Station Details ID: 045009 Name: BALLERA GAS FIELD Lat: -27.40 Lon: 141.81 Height: 114.5 m
Data from the previous 72 hours. | See also: Recent months at Ballera
Date/Time
EST
Temp
°C
App
Temp
°C
Dew
Point
°C
Rel
Hum
%
Delta-T
°C
Wind Press
QNH
hPa
Press
MSL
hPa
Rain since
9am
mm
Dir  Spd
km/h
Gust
km/h
Spd
kts
Gust
kts
13/10:00am 22.7 17.4 5.2 32 8.7 ESE 22 30 12 16 1021.0 1020.5 0.0
13/09:30am 21.4 15.9 5.7 36 7.9 ESE 24 28 13 15 1020.9 1020.4 0.0
13/09:00am 20.1 14.9 5.7 39 7.1 ESE 22 26 12 14 1020.6 1020.2 0.0
13/08:30am 18.4 13.6 5.6 43 6.3 SE 20 24 11 13 1020.5 1020.1 0.0
13/08:00am 17.1 12.6 6.0 48 5.4 SE 19 24 10 13 1020.2 1019.8 0.0
13/07:30am 15.6 11.9 6.3 54 4.5 SE 15 19 8 10 1019.9 1019.5 0.0
13/07:00am 15.0 10.5 6.0 55 4.3 SSE 19 22 10 12 1019.6 1019.2 0.0
13/06:30am 14.9 10.4 6.0 55 4.3 SSE 19 22 10 12 1019.5 1019.0 0.0
13/06:00am 15.0 10.4 5.8 54 4.4 SSE 19 22 10 12 1019.2 1018.7 0.0
13/05:30am 15.2 11.0 5.7 53 4.6 SE 17 19 9 10 1019.1 1018.6 0.0
13/05:00am 15.6 11.4 5.5 51 4.8 SE 17 19 9 10 1018.9 1018.4 0.0
13/04:30am 16.1 11.8 5.4 49 5.1 SSE 17 20 9 11 1018.7 1018.2 0.0
13/04:00am 16.4 12.6 5.7 49 5.2 SSE 15 19 8 10 1018.5 1018.0 0.0
13/03:30am 16.8 12.6 5.7 48 5.4 SSE 17 20 9 11 1018.3 1017.8 0.0
13/03:00am 17.1 12.8 5.4 46 5.7 SSE 17 19 9 10 1018.5 1018.0 0.0
13/02:30am 17.1 12.8 5.4 46 5.7 SSE 17 20 9 11 1018.5 1018.0 0.0
13/02:00am 17.5 12.9 5.4 45 5.9 SSE 19 22 10 12 1018.6 1018.1 0.0
13/01:30am 17.3 13.1 5.6 46 5.7 SSE 17 19 9 10 1018.7 1018.2 0.0
13/01:00am 17.7 13.4 5.3 44 6.0 SSE 17 19 9 10 1018.9 1018.4 0.0
13/12:30am 18.2 13.9 5.4 43 6.2 SSE 17 19 9 10 1019.0 1018.5 0.0
13/12:00am 18.1 14.3 5.7 44 6.1 SSE 15 17 8 9 1019.0 1018.5 0.0
 
Date/Time
EST
Temp
°C
App
Temp
°C
Dew
Point
°C
Rel
Hum
%
Delta-T
°C
Wind Press
QNH
hPa
Press
MSL
hPa
Rain since
9am
mm
Dir  Spd
km/h
Gust
km/h
Spd
kts
Gust
kts
12/11:30pm 19.2 14.8 4.9 39 7.0 SE 17 22 9 12 1018.8 1018.3 0.0
12/11:00pm 19.6 14.8 4.9 38 7.2 SSE 19 26 10 14 1019.2 1018.7 0.0
12/10:30pm 20.3 15.3 4.8 36 7.6 SSE 20 24 11 13 1019.4 1018.9 0.0
12/10:00pm 20.3 15.3 4.8 36 7.6 SSE 20 24 11 13 1019.4 1018.9 0.0
12/09:30pm 20.4 15.6 4.8 36 7.6 S 19 22 10 12 1019.7 1019.3 0.0
12/09:00pm 20.5 15.7 4.9 36 7.6 S 19 24 10 13 1019.7 1019.3 0.0
12/08:30pm 20.7 16.4 5.1 36 7.7 S 17 20 9 11 1019.8 1019.4 0.0
12/08:00pm 21.2 16.8 4.7 34 8.1 S 17 20 9 11 1019.5 1019.0 0.0
12/07:30pm 21.5 17.8 4.6 33 8.3 SSE 13 13 7 7 1019.1 1018.6 0.0
12/07:00pm 22.1 17.9 3.7 30 8.9 SSE 15 17 8 9 1018.6 1018.1 0.0
12/06:30pm 22.9 18.2 3.4 28 9.5 SSE 17 20 9 11 1018.4 1017.9 0.0
12/06:00pm 24.1 19.1 3.4 26 10.1 SSE 19 26 10 14 1017.9 1017.4 0.0
12/05:30pm 24.8 19.7 2.9 24 10.7 SSE 19 28 10 15 1017.7 1017.2 0.0
12/05:00pm 25.2 19.8 2.6 23 11.0 SSE 20 30 11 16 1017.5 1017.0 0.0
12/04:30pm 25.4 20.2 3.4 24 10.9 SSE 20 28 11 15 1017.2 1016.7 0.0
12/04:00pm 25.8 20.2 3.7 24 11.0 SSE 22 28 12 15 1017.2 1016.7 0.0
12/03:30pm 25.4 20.2 3.4 24 10.9 SSE 20 30 11 16 1017.4 1016.9 0.0
12/03:00pm 25.7 21.1 3.6 24 11.0 SE 17 30 9 16 1017.6 1017.1 0.0
12/02:30pm 25.0 20.0 3.6 25 10.6 SSE 19 28 10 15 1017.8 1017.3 0.0
12/02:00pm 25.5 20.2 2.9 23 11.0 SSE 20 30 11 16 1018.2 1017.7 0.0
12/01:30pm 25.1 20.2 4.3 26 10.4 S 19 30 10 16 1018.5 1018.0 0.0
12/01:00pm 24.5 20.0 4.3 27 10.1 SSE 17 28 9 15 1018.9 1018.4 0.0
12/12:30pm 24.4 20.7 4.2 27 10.1 SE 13 22 7 12 1019.8 1019.4 0.0
12/12:00pm 24.1 20.0 4.5 28 9.8 SSE 15 22 8 12 1020.2 1019.8 0.0
12/11:30am 23.9 19.5 4.8 29 9.6 SE 17 28 9 15 1020.6 1020.2 0.0
12/11:00am 23.7 19.1 5.6 31 9.2 ESE 19 24 10 13 1021.2 1020.7 0.0
12/10:30am 22.4 17.6 5.4 33 8.5 ESE 20 28 11 15 1021.4 1020.9 0.0
12/10:00am 21.3 16.9 6.4 38 7.5 ESE 19 22 10 12 1021.5 1021.0 0.0
12/09:30am 19.6 15.2 6.7 43 6.5 ESE 19 26 10 14 1021.4 1020.9 0.0
12/09:00am 18.0 13.4 6.5 47 5.7 SE 20 26 11 14 1021.2 1020.7 0.0
12/08:30am 16.7 12.0 6.2 50 5.2 SE 20 26 11 14 1020.9 1020.4 0.0
12/08:00am 15.6 10.9 6.1 53 4.6 SE 20 24 11 13 1020.5 1020.1 0.0
12/07:30am 14.0 9.5 6.1 59 3.8 SE 19 20 10 11 1020.3 1019.9 0.0
12/07:00am 12.7 8.5 5.8 63 3.2 SE 17 19 9 10 1019.8 1019.4 0.0
12/06:30am 12.4 8.6 6.0 65 3.0 SE 15 17 8 9 1019.6 1019.2 0.0
12/06:00am 12.6 8.5 6.0 64 3.1 SE 17 19 9 10 1019.6 1019.2 0.0
12/05:30am 13.2 9.8 5.9 61 3.5 SE 13 15 7 8 1019.5 1019.0 0.0
12/05:00am 13.7 10.3 5.8 59 3.7 SE 13 17 7 9 1019.1 1018.6 0.0
12/04:30am 13.8 9.9 5.4 57 4.0 SE 15 17 8 9 1018.8 1018.3 0.0
12/04:00am 13.7 10.6 5.6 58 3.8 SE 11 15 6 8 1018.8 1018.3 0.0
12/03:30am 14.6 10.4 5.7 55 4.3 SE 17 20 9 11 1018.6 1018.1 0.0
12/03:00am 15.3 10.5 5.5 52 4.7 SSE 20 22 11 12 1018.8 1018.3 0.0
12/02:30am 15.4 10.8 5.6 52 4.7 SSE 19 22 10 12 1019.0 1018.5 0.0
12/02:00am 15.7 11.4 5.3 50 5.0 SSE 17 20 9 11 1019.2 1018.7 0.0
12/01:30am 15.9 11.2 5.2 49 5.1 SSE 19 20 10 11 1019.5 1019.0 0.0
12/01:00am 16.0 12.1 5.3 49 5.1 SSE 15 17 8 9 1019.6 1019.2 0.0
12/12:30am 16.1 12.1 5.1 48 5.3 SSE 15 17 8 9 1019.7 1019.3 0.0
12/12:00am 16.0 11.6 5.0 48 5.2 SSE 17 17 9 9 1019.9 1019.5 0.0
 
Date/Time
EST
Temp
°C
App
Temp
°C
Dew
Point
°C
Rel
Hum
%
Delta-T
°C
Wind Press
QNH
hPa
Press
MSL
hPa
Rain since
9am
mm
Dir  Spd
km/h
Gust
km/h
Spd
kts
Gust
kts
11/11:30pm 16.0 12.0 5.0 48 5.2 SSE 15 17 8 9 1019.9 1019.5 0.0
11/11:00pm 16.5 12.5 4.9 46 5.5 SSE 15 17 8 9 1020.1 1019.7 0.0
11/10:30pm 17.1 12.7 4.8 44 5.9 SSE 17 17 9 9 1020.3 1019.9 0.0
11/10:00pm 17.6 13.5 4.6 42 6.2 SSE 15 17 8 9 1020.4 1020.0 0.0
11/09:30pm 17.7 13.6 4.6 42 6.3 SSE 15 17 8 9 1020.3 1019.9 0.0
11/09:00pm 18.1 14.0 4.3 40 6.6 SSE 15 19 8 10 1020.2 1019.8 0.0
11/08:30pm 18.2 14.0 4.0 39 6.7 S 15 17 8 9 1019.7 1019.3 0.0
11/08:00pm 19.0 14.8 3.6 36 7.3 S 15 19 8 10 1019.8 1019.4 0.0
11/07:30pm 19.4 14.8 3.6 35 7.5 SSE 17 19 9 10 1019.3 1018.8 0.0
11/07:00pm 20.3 15.2 3.1 32 8.1 SSE 19 22 10 12 1019.1 1018.6 0.0
11/06:30pm 21.5 15.8 2.7 29 8.9 SSE 22 28 12 15 1019.0 1018.5 0.0
11/06:00pm 22.4 16.3 3.0 28 9.3 SSE 24 32 13 17 1018.8 1018.3 0.0
11/05:30pm 23.3 16.4 2.7 26 9.9 SSE 28 35 15 19 1018.7 1018.2 0.0
11/05:00pm 23.8 17.2 2.0 24 10.3 SSE 26 35 14 19 1018.7 1018.2 0.0
11/04:30pm 24.3 18.2 3.0 25 10.4 SSE 24 33 13 18 1018.8 1018.3 0.0
11/04:00pm 24.1 17.4 3.4 26 10.1 SE 28 35 15 19 1018.7 1018.2 0.0
11/03:30pm 24.0 17.6 3.3 26 10.1 SE 26 33 14 18 1018.6 1018.1 0.0
11/03:00pm 24.0 18.4 3.3 26 10.1 SSE 22 33 12 18 1018.7 1018.2 0.0
11/02:30pm 23.6 17.5 3.0 26 10.0 SSE 24 35 13 19 1019.0 1018.5 0.0
11/02:00pm 23.6 17.8 2.4 25 10.1 SE 22 28 12 15 1019.2 1018.7 0.0
11/01:30pm 23.0 17.9 4.0 29 9.3 SSE 20 28 11 15 1019.8 1019.4 0.0
11/01:00pm 22.4 17.1 3.0 28 9.3 SSE 20 32 11 17 1020.5 1020.1 0.0
11/12:30pm 22.7 17.6 3.3 28 9.4 SE 19 24 10 13 1021.1 1020.6 0.0
11/12:00pm 21.6 16.6 3.8 31 8.6 ESE 19 32 10 17 1021.4 1020.9 0.0
11/11:30am 21.3 15.6 3.0 30 8.7 SE 22 32 12 17 1022.1 1021.6 0.0
11/11:00am 20.7 14.6 3.0 31 8.4 SE 24 30 13 16 1022.3 1021.8 0.0
11/10:30am 20.0 14.1 3.7 34 7.8 ESE 24 32 13 17 1022.5 1022.0 0.0
11/10:00am 19.3 13.5 4.6 38 7.1 SE 24 32 13 17 1022.5 1022.0 0.0
11/09:30am 17.8 11.6 4.4 41 6.4 SE 26 32 14 17 1022.4 1021.9 0.0
11/09:00am 16.6 11.2 4.3 44 5.8 SE 22 30 12 16 1022.4 1021.9 0.0
11/08:30am 15.4 9.5 3.9 46 5.3 SE 24 28 13 15 1022.1 1021.6 0.0
11/08:00am 14.0 8.9 4.3 52 4.5 SE 20 24 11 13 1021.7 1021.2 0.0
11/07:30am 12.4 7.9 4.4 58 3.7 SE 17 20 9 11 1021.3 1020.8 0.0
11/07:00am 12.1 7.2 4.1 58 3.6 SE 19 20 10 11 1021.0 1020.5 0.0
11/06:30am 11.5 7.0 4.3 61 3.3 SE 17 20 9 11 1020.6 1020.2 0.0
11/06:00am 11.6 7.5 4.3 61 3.3 SE 15 19 8 10 1020.4 1020.0 0.0
11/05:30am 12.5 7.4 4.2 57 3.8 SE 20 26 11 14 1020.0 1019.6 0.0
11/05:00am 12.2 7.4 4.7 60 3.4 SSE 19 22 10 12 1019.9 1019.5 0.0
11/04:30am 12.4 8.0 4.9 60 3.5 SSE 17 20 9 11 1019.7 1019.3 0.0
11/04:00am 13.1 8.3 4.8 57 3.8 SSE 19 22 10 12 1019.6 1019.2 0.0
11/03:30am 13.9 8.9 4.5 53 4.4 SSE 20 24 11 13 1019.7 1019.3 0.0
11/03:00am 14.2 9.4 4.5 52 4.5 SSE 19 24 10 13 1019.9 1019.5 0.0
11/02:30am 14.4 9.6 4.4 51 4.6 S 19 22 10 12 1019.9 1019.5 0.0
11/02:00am 14.8 10.0 4.5 50 4.8 S 19 20 10 11 1020.1 1019.7 0.0
11/01:30am 14.6 10.2 4.6 51 4.7 S 17 19 9 10 1020.2 1019.8 0.0
11/01:00am 14.5 10.5 4.8 52 4.5 S 15 17 8 9 1020.3 1019.9 0.0
11/12:30am 14.6 10.2 4.9 52 4.6 S 17 19 9 10 1020.2 1019.8 0.0
11/12:00am 14.6 10.2 4.9 52 4.5 S 17 19 9 10 1020.4 1020.0 0.0
 
Date/Time
EST
Temp
°C
App
Temp
°C
Dew
Point
°C
Rel
Hum
%
Delta-T
°C
Wind Press
QNH
hPa
Press
MSL
hPa
Rain since
9am
mm
Dir  Spd
km/h
Gust
km/h
Spd
kts
Gust
kts
10/11:30pm 14.7 10.7 4.7 51 4.7 SSE 15 17 8 9 1020.5 1020.1 0.0
10/11:00pm 14.7 11.0 4.7 51 4.7 SSE 13 15 7 8 1020.8 1020.3 0.0
10/10:30pm 15.6 11.5 4.3 47 5.3 SSE 15 17 8 9 1021.2 1020.7 0.0
10/10:00pm 15.8 12.1 4.5 47 5.3 SSE 13 17 7 9 1021.2 1020.7 0.0
10/09:30pm 16.7 12.6 4.1 43 5.9 SSE 15 17 8 9 1021.1 1020.6 0.0
10/09:00pm 17.8 12.8 3.7 39 6.6 SSE 19 22 10 12 1020.9 1020.4 0.0
10/08:30pm 17.8 13.3 4.0 40 6.5 S 17 20 9 11 1020.6 1020.2 0.0
10/08:00pm 18.2 13.7 4.0 39 6.7 S 17 19 9 10 1020.5 1020.1 0.0
10/07:30pm 19.0 14.4 3.6 36 7.3 S 17 20 9 11 1020.1 1019.7 0.0
10/07:00pm 19.8 14.8 3.5 34 7.7 S 19 22 10 12 1019.8 1019.4 0.0
10/06:30pm 20.6 15.4 3.3 32 8.2 SSE 20 28 11 15 1019.5 1019.0 0.0
10/06:00pm 21.6 15.4 2.3 28 9.1 SSE 24 30 13 16 1019.3 1018.8 0.0
10/05:30pm 22.3 16.1 2.4 27 9.4 SSE 24 33 13 18 1019.0 1018.5 0.0
10/05:00pm 22.9 16.7 2.4 26 9.7 SSE 24 33 13 18 1018.7 1018.2 0.0
10/04:30pm 23.2 16.7 2.7 26 9.8 SSE 26 39 14 21 1018.7 1018.2 0.0
10/04:00pm 23.0 16.4 1.9 25 9.9 SSE 26 33 14 18 1018.6 1018.1 0.0
10/03:30pm 23.0 16.9 2.5 26 9.8 SSE 24 33 13 18 1018.6 1018.1 0.0
10/03:00pm 22.9 16.7 1.9 25 9.9 SSE 24 37 13 20 1018.7 1018.2 0.0
10/02:30pm 22.7 15.7 2.2 26 9.7 SSE 28 35 15 19 1019.1 1018.6 0.0
10/02:00pm 22.4 16.6 2.5 27 9.4 SSE 22 35 12 19 1019.4 1018.9 0.0
10/01:30pm 22.2 15.6 2.3 27 9.4 SSE 26 35 14 19 1019.7 1019.3 0.0
10/01:00pm 21.3 15.2 2.6 29 8.8 SE 24 32 13 17 1020.2 1019.8 0.0
10/12:30pm 21.0 14.8 2.3 29 8.8 SE 24 35 13 19 1020.9 1020.4 0.0
10/12:00pm 20.7 13.8 2.5 30 8.5 SE 28 37 15 20 1021.4 1020.9 0.0
10/11:30am 20.0 13.1 2.4 31 8.2 SE 28 37 15 20 1021.7 1021.2 0.0
10/11:00am 19.9 13.0 2.7 32 8.0 SE 28 35 15 19 1022.0 1021.5 0.0
10/10:30am 19.3 12.5 3.1 34 7.6 ESE 28 39 15 21 1022.2 1021.7 0.0

Other formats

Comma delimited format used in spreadsheet applications
http://www.bom.gov.au/fwo/IDQ60801/IDQ60801.95487.axf

JavaScript Object Notation format (JSON) in row-major order
http://www.bom.gov.au/fwo/IDQ60801/IDQ60801.95487.json

Data quality

Most of these data are generated automatically and are frequently updated. Quality checks on data are not normally performed. It is possible for incorrect values to appear. Refer to information at About Latest Weather Observations and please check the disclaimer before using these data.